Terminal Aerodrome Forecast
Issued by NWS Detroit/Pontiac, MI

Home | Current Version | Previous Version | Text Only | Print | Product List | Glossary On
Versions: 1 2 3 4 5 6 7 8 9 10 11 12 13
300
FTUS43 KDTX 230529
TAFFNT
TAF
KFNT 230529Z 2306/2406 VRB03KT P6SM SKC
     FM231600 27006KT P6SM SKC
     FM240200 05008KT P6SM SKC=

USA.gov is the U.S. government's official web portal to all federal, state and local government web resources and services.